Time;durP1;ratioP1;P1;durP2;ratioP2;P2;SDS_P1;SDS_P2;PMS_P1;PMS_P2;Temp;Humidity;BMP_temperature;BMP_pressure;BME280_temperature;BME280_humidity;BME280_pressure;Samples;Min_cycle;Max_cycle;Signal;HPM_P1;HPM_P2
2023/04/30 00:00:07;;;;;;;1.27;1.27;;;;;10.60;96241.00;;;;5075954;28;20555;-65
2023/04/30 00:02:34;;;;;;;1.30;1.30;;;;;10.70;96236.00;;;;5076413;28;20184;-65
2023/04/30 00:05:02;;;;;;;1.43;1.40;;;;;10.70;96235.00;;;;5075868;28;20195;-64
2023/04/30 00:07:29;;;;;;;1.20;1.17;;;;;10.60;96238.00;;;;5075789;28;20713;-64
2023/04/30 00:09:56;;;;;;;1.10;1.10;;;;;10.60;96234.00;;;;5075848;28;20225;-65
2023/04/30 00:12:24;;;;;;;1.30;1.30;;;;;10.60;96229.00;;;;5075791;28;20724;-65
2023/04/30 00:14:51;;;;;;;1.60;1.17;;;;;10.70;96239.00;;;;5075751;28;20203;-64
2023/04/30 00:17:20;;;;;;;1.13;1.13;;;;;10.60;96230.00;;;;5075838;28;20602;-65
2023/04/30 00:19:48;;;;;;;1.00;1.00;;;;;10.60;96222.00;;;;5075641;28;20219;-65
2023/04/30 00:22:15;;;;;;;0.90;0.90;;;;;10.60;96230.00;;;;5075572;28;20187;-64
2023/04/30 00:24:42;;;;;;;0.80;0.80;;;;;10.60;96236.00;;;;5057604;28;20658;-64
2023/04/30 00:27:10;;;;;;;1.63;1.53;;;;;10.60;96229.00;;;;5075426;28;20219;-64
2023/04/30 00:29:37;;;;;;;0.80;0.80;;;;;10.60;96232.00;;;;5075461;28;20211;-64
2023/04/30 00:32:05;;;;;;;2.60;1.73;;;;;10.60;96242.00;;;;5075386;28;20199;-65
2023/04/30 00:34:33;;;;;;;1.07;1.07;;;;;10.60;96240.00;;;;5075660;28;20207;-64
2023/04/30 00:37:01;;;;;;;1.30;1.20;;;;;10.60;96244.00;;;;5075259;28;20212;-64
2023/04/30 00:39:28;;;;;;;2.07;1.10;;;;;10.60;96247.00;;;;5075275;28;20200;-64
2023/04/30 00:41:55;;;;;;;0.73;0.73;;;;;10.60;96249.00;;;;5075304;28;20195;-64
2023/04/30 00:44:23;;;;;;;0.70;0.70;;;;;10.60;96248.00;;;;5075207;28;20221;-65
2023/04/30 00:46:50;;;;;;;1.50;1.43;;;;;10.60;96252.00;;;;5075092;28;20257;-64
2023/04/30 00:49:17;;;;;;;0.83;0.83;;;;;10.60;96248.00;;;;5075399;28;20192;-64
2023/04/30 00:51:46;;;;;;;0.80;0.80;;;;;10.70;96245.00;;;;5075313;28;20199;-64
2023/04/30 00:54:14;;;;;;;0.70;0.70;;;;;10.60;96240.00;;;;5075072;28;20195;-64
2023/04/30 00:56:41;;;;;;;1.10;1.10;;;;;10.60;96242.00;;;;5074911;28;20192;-63
2023/04/30 00:59:10;;;;;;;1.40;1.30;;;;;10.50;96242.00;;;;5074815;28;20234;-64
2023/04/30 01:01:38;;;;;;;0.80;0.80;;;;;10.50;96244.00;;;;5074850;28;20233;-64
2023/04/30 01:04:06;;;;;;;1.63;1.53;;;;;10.40;96234.00;;;;5074820;28;20199;-64
2023/04/30 01:06:33;;;;;;;1.33;1.23;;;;;10.40;96235.00;;;;5074794;28;20249;-65
2023/04/30 01:09:02;;;;;;;0.57;0.57;;;;;10.30;96229.00;;;;5074711;28;20187;-64
2023/04/30 01:11:42;;;;;;;0.90;0.90;;;;;10.40;96238.00;;;;5074992;28;20198;-64
2023/04/30 01:14:16;;;;;;;1.00;1.00;;;;;10.40;96237.00;;;;5074958;28;20198;-64
2023/04/30 01:16:51;;;;;;;0.70;0.70;;;;;10.50;96232.00;;;;5074826;28;20184;-64
2023/04/30 01:19:33;;;;;;;1.47;1.37;;;;;10.40;96222.00;;;;5074432;28;20199;-64
2023/04/30 01:22:04;;;;;;;1.13;1.13;;;;;10.20;96221.00;;;;5074990;28;20179;-66
2023/04/30 01:25:06;;;;;;;1.47;1.37;;;;;10.20;96217.00;;;;5074399;28;20264;-64
2023/04/30 01:28:01;;;;;;;0.63;0.63;;;;;10.20;96223.00;;;;5073815;28;20218;-64
2023/04/30 01:30:30;;;;;;;1.30;1.30;;;;;10.30;96218.00;;;;5074443;28;20211;-64
2023/04/30 01:32:58;;;;;;;1.00;1.00;;;;;10.20;96218.00;;;;5074232;28;20282;-64
2023/04/30 01:35:41;;;;;;;1.47;1.47;;;;;10.20;96231.00;;;;5056322;28;20206;-64
2023/04/30 01:38:18;;;;;;;1.43;1.33;;;;;10.20;96222.00;;;;5073962;28;20222;-64
2023/04/30 01:40:53;;;;;;;4.13;1.53;;;;;10.20;96222.00;;;;5074078;28;20210;-64
2023/04/30 01:43:30;;;;;;;1.07;1.07;;;;;10.20;96216.00;;;;5074546;28;20187;-64
2023/04/30 01:46:07;;;;;;;0.90;0.90;;;;;10.20;96220.00;;;;5074037;28;20556;-64
2023/04/30 01:48:52;;;;;;;1.30;1.20;;;;;10.10;96230.00;;;;5056277;28;20222;-64
2023/04/30 01:51:36;;;;;;;1.03;1.03;;;;;10.20;96227.00;;;;5074156;28;20164;-64
2023/04/30 01:54:10;;;;;;;1.20;1.20;;;;;10.20;96219.00;;;;5074060;28;20179;-64
2023/04/30 01:56:44;;;;;;;1.20;1.20;;;;;10.30;96223.00;;;;5073731;28;20182;-65
2023/04/30 01:59:15;;;;;;;1.53;1.43;;;;;10.20;96210.00;;;;5073682;28;20179;-64
2023/04/30 02:01:43;;;;;;;1.00;1.00;;;;;10.20;96221.00;;;;5073714;28;20188;-64
2023/04/30 02:04:11;;;;;;;1.20;1.17;;;;;10.20;96230.00;;;;5073793;28;20583;-64
2023/04/30 02:06:40;;;;;;;0.87;0.87;;;;;10.20;96217.00;;;;5073770;28;20195;-64
2023/04/30 02:09:09;;;;;;;1.67;1.57;;;;;10.30;96230.00;;;;5073808;28;20191;-64
2023/04/30 02:11:36;;;;;;;1.13;1.13;;;;;10.30;96216.00;;;;5073572;28;20217;-64
2023/04/30 02:14:05;;;;;;;1.47;1.43;;;;;10.20;96219.00;;;;5073432;28;20229;-63
2023/04/30 02:16:33;;;;;;;2.00;1.90;;;;;10.20;96219.00;;;;5073473;28;20617;-64
2023/04/30 02:19:01;;;;;;;1.47;1.43;;;;;10.20;96218.00;;;;5073361;28;20674;-64
2023/04/30 02:21:28;;;;;;;2.70;1.43;;;;;10.20;96219.00;;;;5073302;28;20211;-65
2023/04/30 02:23:56;;;;;;;0.97;0.97;;;;;10.20;96219.00;;;;5073475;28;20195;-64
2023/04/30 02:26:23;;;;;;;1.53;1.43;;;;;10.20;96213.00;;;;5073326;28;20241;-65
2023/04/30 02:28:50;;;;;;;1.10;1.10;;;;;10.20;96216.00;;;;5073212;28;20214;-64
2023/04/30 02:31:18;;;;;;;1.93;1.83;;;;;10.20;96212.00;;;;5073298;28;20187;-64
2023/04/30 02:33:46;;;;;;;1.60;1.50;;;;;10.20;96211.00;;;;5073282;28;20188;-64
2023/04/30 02:36:14;;;;;;;3.13;1.70;;;;;10.10;96213.00;;;;5055378;28;20195;-65
2023/04/30 02:38:41;;;;;;;1.30;1.30;;;;;10.10;96220.00;;;;5073092;28;20258;-66
2023/04/30 02:41:08;;;;;;;1.87;1.77;;;;;10.10;96218.00;;;;5055223;28;20227;-64
2023/04/30 02:43:36;;;;;;;1.63;1.57;;;;;10.10;96219.00;;;;5073153;28;20199;-64
2023/04/30 02:46:03;;;;;;;2.13;2.03;;;;;10.10;96217.00;;;;5073122;28;20195;-63
2023/04/30 02:48:30;;;;;;;1.30;1.30;;;;;10.10;96227.00;;;;5072982;28;20215;-65
2023/04/30 02:50:59;;;;;;;1.10;1.10;;;;;10.10;96230.00;;;;5073056;28;20674;-64
2023/04/30 02:53:26;;;;;;;1.20;1.20;;;;;10.00;96219.00;;;;5073315;28;20249;-64
2023/04/30 02:55:54;;;;;;;1.43;1.33;;;;;10.00;96215.00;;;;5073140;28;20191;-64
2023/04/30 02:58:21;;;;;;;2.00;1.90;;;;;10.00;96215.00;;;;5072973;28;20694;-64
2023/04/30 03:00:48;;;;;;;3.20;1.60;;;;;9.90;96217.00;;;;5072938;28;20381;-64
2023/04/30 03:03:16;;;;;;;1.57;1.47;;;;;9.90;96219.00;;;;5073227;28;20226;-64
2023/04/30 03:05:43;;;;;;;1.30;1.30;;;;;9.90;96216.00;;;;5073452;28;20194;-65
2023/04/30 03:08:12;;;;;;;1.60;1.50;;;;;9.80;96211.00;;;;5072903;28;20215;-64
2023/04/30 03:10:39;;;;;;;9.20;2.10;;;;;9.90;96211.00;;;;5072899;28;20191;-64
2023/04/30 03:13:07;;;;;;;1.53;1.47;;;;;9.90;96216.00;;;;5072907;28;20274;-64
2023/04/30 03:15:34;;;;;;;3.70;1.73;;;;;9.90;96219.00;;;;5072879;28;20248;-64
2023/04/30 03:18:02;;;;;;;1.40;1.40;;;;;9.80;96212.00;;;;5072808;28;20701;-64
2023/04/30 03:20:30;;;;;;;1.30;1.30;;;;;9.70;96215.00;;;;5073007;28;20199;-64
2023/04/30 03:22:57;;;;;;;1.47;1.40;;;;;9.80;96212.00;;;;5072793;28;20192;-64
2023/04/30 03:25:26;;;;;;;2.50;2.30;;;;;9.80;96208.00;;;;5072750;28;20562;-64
2023/04/30 03:27:53;;;;;;;1.63;1.53;;;;;9.80;96207.00;;;;5072966;28;20215;-64
2023/04/30 03:30:21;;;;;;;2.40;2.17;;;;;9.70;96205.00;;;;5072710;28;20250;-64
2023/04/30 03:32:48;;;;;;;1.33;1.30;;;;;9.70;96197.00;;;;5072964;28;20557;-65
2023/04/30 03:35:16;;;;;;;1.30;1.30;;;;;9.70;96196.00;;;;5072726;28;20198;-65
2023/04/30 03:37:43;;;;;;;1.87;1.60;;;;;9.70;96190.00;;;;5054660;28;20732;-65
2023/04/30 03:40:11;;;;;;;1.53;1.43;;;;;9.70;96199.00;;;;5072567;28;20215;-65
2023/04/30 03:42:40;;;;;;;1.40;1.40;;;;;9.70;96205.00;;;;5072584;28;20623;-64
2023/04/30 03:45:08;;;;;;;2.37;2.27;;;;;9.70;96198.00;;;;5072807;28;20191;-64
2023/04/30 03:47:36;;;;;;;1.40;1.27;;;;;9.80;96206.00;;;;5072675;28;20644;-65
2023/04/30 03:50:04;;;;;;;2.50;2.40;;;;;9.70;96201.00;;;;5073971;28;20192;-63
2023/04/30 03:52:32;;;;;;;2.00;1.90;;;;;9.80;96200.00;;;;5076097;28;20275;-64
2023/04/30 03:54:59;;;;;;;3.23;1.80;;;;;9.70;96208.00;;;;5076120;28;20198;-64
2023/04/30 03:57:27;;;;;;;1.03;1.03;;;;;9.80;96206.00;;;;5076016;28;20678;-65
2023/04/30 03:59:56;;;;;;;1.73;1.63;;;;;9.70;96200.00;;;;5076214;28;20199;-64
2023/04/30 04:02:24;;;;;;;1.07;1.07;;;;;9.80;96210.00;;;;5076256;28;20195;-65
2023/04/30 04:04:52;;;;;;;2.40;2.30;;;;;9.70;96202.00;;;;5076119;28;20199;-64
2023/04/30 04:07:19;;;;;;;1.33;1.33;;;;;9.70;96206.00;;;;5058227;28;20222;-64
2023/04/30 04:09:47;;;;;;;3.70;2.23;;;;;9.70;96206.00;;;;5057871;28;20191;-64
2023/04/30 04:12:14;;;;;;;1.70;1.60;;;;;9.70;96214.00;;;;5076100;28;20199;-65
2023/04/30 04:14:41;;;;;;;1.80;1.70;;;;;9.70;96212.00;;;;5076338;28;20196;-64
2023/04/30 04:17:10;;;;;;;0.80;0.80;;;;;9.70;96208.00;;;;5076093;28;20241;-65
2023/04/30 04:19:38;;;;;;;2.30;2.20;;;;;9.70;96211.00;;;;5075970;28;20596;-65
2023/04/30 04:22:05;;;;;;;2.60;2.40;;;;;9.60;96209.00;;;;5076142;28;20211;-64
2023/04/30 04:24:33;;;;;;;1.80;1.70;;;;;9.60;96207.00;;;;5075875;28;20218;-64
2023/04/30 04:27:02;;;;;;;1.33;1.33;;;;;9.60;96214.00;;;;5075464;28;20235;-64
2023/04/30 04:29:31;;;;;;;1.73;1.63;;;;;9.70;96213.00;;;;5076021;28;20577;-65
2023/04/30 04:31:59;;;;;;;1.63;1.57;;;;;9.60;96213.00;;;;5057452;28;20291;-64
2023/04/30 04:34:27;;;;;;;1.17;1.17;;;;;9.70;96217.00;;;;5075412;28;20195;-65
2023/04/30 04:36:55;;;;;;;1.80;1.70;;;;;9.70;96219.00;;;;5075212;28;20286;-64
2023/04/30 04:39:22;;;;;;;1.63;1.53;;;;;9.80;96217.00;;;;5075652;28;20183;-65
2023/04/30 04:41:50;;;;;;;1.77;1.67;;;;;9.80;96219.00;;;;5075278;28;20216;-64
2023/04/30 04:44:17;;;;;;;2.30;1.67;;;;;9.80;96214.00;;;;5075254;28;20183;-65
2023/04/30 04:46:44;;;;;;;1.50;1.27;;;;;9.80;96212.00;;;;5075154;28;20658;-65
2023/04/30 04:49:12;;;;;;;2.30;2.07;;;;;9.80;96218.00;;;;5075101;28;20203;-65
2023/04/30 04:51:41;;;;;;;2.57;2.37;;;;;9.80;96219.00;;;;5075115;28;20274;-65
2023/04/30 04:54:08;;;;;;;3.40;1.97;;;;;9.80;96216.00;;;;5075297;28;20203;-64
2023/04/30 04:56:35;;;;;;;3.13;2.67;;;;;9.80;96209.00;;;;5074945;28;20658;-64
2023/04/30 04:59:03;;;;;;;1.30;1.30;;;;;9.90;96215.00;;;;5075067;28;20199;-64
2023/04/30 05:01:30;;;;;;;4.90;3.03;;;;;9.90;96218.00;;;;5073962;28;20223;-64
2023/04/30 05:03:57;;;;;;;1.37;1.37;;;;;9.90;96219.00;;;;5074868;28;20244;-65
2023/04/30 05:06:25;;;;;;;2.10;2.00;;;;;9.90;96221.00;;;;5075346;28;20207;-64
2023/04/30 05:08:54;;;;;;;2.07;1.97;;;;;10.00;96227.00;;;;5074626;28;20268;-64
2023/04/30 05:11:22;;;;;;;1.10;1.10;;;;;10.00;96230.00;;;;5074712;28;20196;-64
2023/04/30 05:13:49;;;;;;;4.17;1.83;;;;;10.10;96222.00;;;;5074705;28;20194;-65
2023/04/30 05:16:16;;;;;;;2.03;1.93;;;;;10.20;96223.00;;;;5074889;28;20547;-64
2023/04/30 05:18:44;;;;;;;1.87;1.77;;;;;10.20;96216.00;;;;5074492;28;20690;-64
2023/04/30 05:21:11;;;;;;;2.23;2.10;;;;;10.30;96229.00;;;;5074717;28;20215;-64
2023/04/30 05:23:38;;;;;;;1.33;1.23;;;;;10.30;96219.00;;;;5074422;28;20202;-65
2023/04/30 05:26:07;;;;;;;2.20;2.10;;;;;10.30;96217.00;;;;5074638;28;20183;-63
2023/04/30 05:28:35;;;;;;;1.53;1.43;;;;;10.30;96218.00;;;;5074274;28;20215;-64
2023/04/30 05:31:02;;;;;;;2.80;2.03;;;;;10.40;96218.00;;;;5074305;28;20283;-64
2023/04/30 05:33:29;;;;;;;1.77;1.67;;;;;10.40;96220.00;;;;5074253;28;20203;-64
2023/04/30 05:35:57;;;;;;;1.30;1.30;;;;;10.40;96220.00;;;;5074185;28;20194;-63
2023/04/30 05:38:24;;;;;;;1.43;1.40;;;;;10.50;96219.00;;;;5074004;28;20235;-64
2023/04/30 05:40:52;;;;;;;1.20;1.20;;;;;10.60;96213.00;;;;5074087;28;20223;-63
2023/04/30 05:43:20;;;;;;;1.97;1.87;;;;;10.60;96219.00;;;;5056081;28;20701;-63
2023/04/30 05:45:48;;;;;;;2.97;2.77;;;;;10.50;96217.00;;;;5074051;28;20196;-63
2023/04/30 05:48:15;;;;;;;1.97;1.87;;;;;10.80;96218.00;;;;5073920;28;20215;-64
2023/04/30 05:50:42;;;;;;;1.43;1.33;;;;;10.80;96219.00;;;;5073962;28;20249;-63
2023/04/30 05:53:10;;;;;;;3.87;1.93;;;;;10.90;96227.00;;;;5073831;28;20195;-63
2023/04/30 05:55:37;;;;;;;1.90;1.60;;;;;11.10;96228.00;;;;5055814;28;20681;-64
2023/04/30 05:58:05;;;;;;;1.90;1.80;;;;;11.20;96234.00;;;;5073718;28;20211;-64
2023/04/30 06:00:34;;;;;;;2.37;2.27;;;;;11.20;96231.00;;;;5074141;28;20642;-63
2023/04/30 06:03:02;;;;;;;1.80;1.70;;;;;11.20;96222.00;;;;5073576;28;20222;-63
2023/04/30 06:05:29;;;;;;;2.27;2.10;;;;;11.20;96228.00;;;;5073640;28;20297;-63
2023/04/30 06:07:57;;;;;;;2.13;1.60;;;;;11.40;96220.00;;;;5073562;28;20269;-64
2023/04/30 06:10:25;;;;;;;2.13;2.03;;;;;11.50;96233.00;;;;5073602;28;20196;-64
2023/04/30 06:12:53;;;;;;;1.60;1.50;;;;;11.60;96218.00;;;;5073402;28;20720;-64
2023/04/30 06:15:20;;;;;;;1.07;1.07;;;;;11.50;96233.00;;;;5073630;28;20187;-64
2023/04/30 06:17:49;;;;;;;4.30;1.60;;;;;11.60;96222.00;;;;5073539;28;20215;-64
2023/04/30 06:20:16;;;;;;;1.73;1.63;;;;;11.70;96221.00;;;;5073482;28;20225;-66
2023/04/30 06:22:44;;;;;;;1.23;1.23;;;;;11.70;96221.00;;;;5073479;28;20268;-64
2023/04/30 06:25:11;;;;;;;1.97;1.77;;;;;11.70;96223.00;;;;5073715;28;20191;-64
2023/04/30 06:27:38;;;;;;;1.90;1.73;;;;;11.50;96219.00;;;;5073327;28;20261;-64
2023/04/30 06:30:07;;;;;;;1.97;1.87;;;;;11.80;96220.00;;;;5073455;28;20678;-64
2023/04/30 06:32:35;;;;;;;4.10;1.43;;;;;11.80;96223.00;;;;5073278;28;20184;-64
2023/04/30 06:35:04;;;;;;;2.10;1.93;;;;;11.90;96218.00;;;;5073305;28;20183;-64
2023/04/30 06:37:36;;;;;;;2.77;1.90;;;;;11.80;96221.00;;;;5073280;28;20600;-64
2023/04/30 06:40:04;;;;;;;1.83;1.73;;;;;11.90;96222.00;;;;5100939;22;20324;-58
2023/04/30 06:42:33;;;;;;;1.13;1.13;;;;;11.90;96228.00;;;;5108799;28;20631;-58
2023/04/30 06:45:01;;;;;;;1.77;1.67;;;;;11.40;96227.00;;;;5093083;28;20290;-58
2023/04/30 06:47:28;;;;;;;2.20;2.03;;;;;11.30;96232.00;;;;5093134;28;20243;-60
2023/04/30 06:49:56;;;;;;;1.90;1.80;;;;;11.50;96237.00;;;;5091731;28;20693;-59
2023/04/30 06:52:24;;;;;;;1.00;1.00;;;;;11.70;96237.00;;;;5093451;28;20208;-59
2023/04/30 06:54:52;;;;;;;1.90;1.80;;;;;11.90;96231.00;;;;5093201;28;20259;-59
2023/04/30 06:57:19;;;;;;;3.60;2.23;;;;;12.00;96227.00;;;;5091847;28;20199;-59
2023/04/30 06:59:47;;;;;;;3.03;2.57;;;;;12.00;96218.00;;;;5092933;28;20214;-59
2023/04/30 07:02:14;;;;;;;2.87;2.67;;;;;12.30;96220.00;;;;5091621;28;20593;-59
2023/04/30 07:04:42;;;;;;;1.47;1.37;;;;;12.50;96221.00;;;;5093153;28;20193;-59
2023/04/30 07:07:09;;;;;;;1.50;1.40;;;;;12.60;96228.00;;;;5092892;28;20202;-59
2023/04/30 07:09:38;;;;;;;2.00;1.90;;;;;12.60;96230.00;;;;5092866;28;20211;-58
2023/04/30 07:12:05;;;;;;;1.90;1.80;;;;;12.50;96238.00;;;;5093391;28;20190;-59
2023/04/30 07:14:33;;;;;;;4.83;2.70;;;;;12.70;96228.00;;;;5092792;28;20194;-59
2023/04/30 07:17:00;;;;;;;1.93;1.83;;;;;12.80;96221.00;;;;5093078;28;20191;-59
2023/04/30 07:19:28;;;;;;;1.50;1.40;;;;;12.90;96219.00;;;;5092763;28;20211;-59
2023/04/30 07:21:55;;;;;;;1.30;1.30;;;;;12.50;96219.00;;;;5091545;28;20254;-58
2023/04/30 07:24:22;;;;;;;1.33;1.33;;;;;12.50;96215.00;;;;5093308;28;20191;-59
2023/04/30 07:26:51;;;;;;;3.47;2.23;;;;;12.70;96204.00;;;;5096736;28;20187;-59
2023/04/30 07:29:18;;;;;;;1.47;1.47;;;;;12.80;96210.00;;;;5096826;28;20215;-59
2023/04/30 07:31:46;;;;;;;1.73;1.63;;;;;13.10;96206.00;;;;5096810;28;20202;-59
2023/04/30 07:34:13;;;;;;;1.90;1.63;;;;;13.30;96199.00;;;;5097089;28;20191;-58
2023/04/30 07:36:41;;;;;;;2.83;2.63;;;;;13.30;96204.00;;;;5096563;28;20195;-59
2023/04/30 07:39:10;;;;;;;1.47;1.43;;;;;13.10;96203.00;;;;5096315;28;20218;-59
2023/04/30 07:41:37;;;;;;;1.23;1.13;;;;;13.10;96195.00;;;;5096429;28;20681;-59
2023/04/30 07:44:06;;;;;;;1.13;1.10;;;;;13.20;96202.00;;;;5096398;28;20197;-59
2023/04/30 07:46:35;;;;;;;1.90;1.80;;;;;13.40;96204.00;;;;5095057;28;20201;-59
2023/04/30 07:49:12;;;;;;;1.67;1.57;;;;;13.80;96198.00;;;;5096344;28;20255;-58
2023/04/30 07:51:41;;;;;;;3.10;2.10;;;;;14.10;96198.00;;;;5096377;28;20175;-60
2023/04/30 07:54:08;;;;;;;1.20;1.10;;;;;14.30;96206.00;;;;5096273;28;20685;-60
2023/04/30 07:56:36;;;;;;;1.90;1.80;;;;;14.50;96203.00;;;;5096337;28;20191;-60
2023/04/30 07:59:03;;;;;;;1.60;1.53;;;;;14.60;96202.00;;;;5096673;28;20214;-60
2023/04/30 08:01:32;;;;;;;1.80;1.70;;;;;14.80;96207.00;;;;5094866;28;20585;-60
2023/04/30 08:04:00;;;;;;;1.00;1.00;;;;;15.00;96201.00;;;;5096112;28;20198;-60
2023/04/30 08:06:27;;;;;;;1.53;1.43;;;;;14.90;96208.00;;;;5094728;28;20661;-59
2023/04/30 08:08:55;;;;;;;1.70;1.47;;;;;15.00;96213.00;;;;5095955;28;20304;-59
2023/04/30 08:11:22;;;;;;;1.00;1.00;;;;;15.00;96211.00;;;;5095415;28;20193;-59
2023/04/30 08:13:50;;;;;;;1.73;1.63;;;;;14.80;96215.00;;;;5096434;28;20206;-60
2023/04/30 08:16:17;;;;;;;1.60;1.50;;;;;14.10;96208.00;;;;5094729;28;20201;-60
2023/04/30 08:18:48;;;;;;;1.63;1.53;;;;;14.10;96212.00;;;;5096589;28;20230;-60
2023/04/30 08:21:16;;;;;;;1.27;1.17;;;;;14.30;96208.00;;;;5095813;28;20240;-60
2023/04/30 08:23:44;;;;;;;1.67;1.57;;;;;14.20;96219.00;;;;5095688;28;20199;-60
2023/04/30 08:26:12;;;;;;;1.30;1.27;;;;;14.10;96219.00;;;;5096236;28;20198;-60
2023/04/30 08:28:39;;;;;;;1.77;1.67;;;;;13.80;96216.00;;;;5095604;28;20233;-59
2023/04/30 08:31:07;;;;;;;1.80;1.70;;;;;13.60;96218.00;;;;5095589;28;20649;-60
2023/04/30 08:33:34;;;;;;;1.07;1.07;;;;;13.50;96204.00;;;;5095531;28;20187;-58
2023/04/30 08:36:03;;;;;;;1.87;1.73;;;;;14.20;96217.00;;;;5095390;28;20187;-59
2023/04/30 08:38:31;;;;;;;1.47;1.37;;;;;14.20;96210.00;;;;5093973;28;20195;-59
2023/04/30 08:41:10;;;;;;;5.10;2.00;;;;;14.40;96220.00;;;;5095735;28;20183;-59
2023/04/30 08:43:38;;;;;;;1.40;1.30;;;;;14.60;96218.00;;;;5095393;28;20179;-59
2023/04/30 08:46:06;;;;;;;1.23;1.23;;;;;14.60;96220.00;;;;5095649;28;20197;-59
2023/04/30 08:48:34;;;;;;;1.63;1.53;;;;;14.40;96223.00;;;;5095729;28;20890;-59
2023/04/30 08:51:04;;;;;;;3.87;2.13;;;;;14.60;96221.00;;;;5095438;28;20191;-59
2023/04/30 08:53:35;;;;;;;1.60;1.50;;;;;14.70;96222.00;;;;5095135;28;20293;-59
2023/04/30 08:56:02;;;;;;;1.80;1.70;;;;;14.60;96228.00;;;;5093831;28;20206;-59
2023/04/30 08:58:30;;;;;;;1.00;1.00;;;;;14.50;96218.00;;;;5094959;28;20194;-60
2023/04/30 09:00:59;;;;;;;1.90;1.80;;;;;14.60;96211.00;;;;5094978;28;20199;-60
2023/04/30 09:03:27;;;;;;;1.17;1.17;;;;;14.70;96214.00;;;;5094870;28;20221;-60
2023/04/30 09:05:54;;;;;;;1.10;1.10;;;;;14.80;96229.00;;;;5094883;28;20288;-59
2023/04/30 09:08:45;;;;;;;1.20;1.20;;;;;14.60;96220.00;;;;5094939;28;20638;-59
2023/04/30 09:11:26;;;;;;;0.83;0.83;;;;;14.70;96219.00;;;;5095107;28;20547;-59
2023/04/30 09:13:56;;;;;;;1.30;1.20;;;;;14.80;96219.00;;;;5094632;28;20191;-59
2023/04/30 09:16:24;;;;;;;1.47;1.40;;;;;14.20;96218.00;;;;5094639;28;20191;-59
2023/04/30 09:18:52;;;;;;;0.80;0.80;;;;;14.00;96218.00;;;;5094789;28;20221;-59
2023/04/30 09:21:32;;;;;;;0.90;0.90;;;;;14.00;96222.00;;;;5094508;28;20187;-59
2023/04/30 09:24:02;;;;;;;1.13;1.13;;;;;14.30;96228.00;;;;5094522;28;20213;-59
2023/04/30 09:26:33;;;;;;;1.30;1.30;;;;;14.40;96218.00;;;;5094477;28;20206;-59
2023/04/30 09:29:06;;;;;;;1.60;1.10;;;;;14.40;96229.00;;;;5094556;28;20213;-59
2023/04/30 09:31:34;;;;;;;0.97;0.97;;;;;14.40;96231.00;;;;5094399;28;20668;-59
2023/04/30 09:34:02;;;;;;;1.27;1.17;;;;;14.50;96230.00;;;;5094389;28;20187;-59
2023/04/30 09:36:30;;;;;;;1.23;1.23;;;;;14.60;96228.00;;;;5093280;28;20658;-59
2023/04/30 09:39:06;;;;;;;1.37;1.27;;;;;14.50;96222.00;;;;5094406;28;20229;-59
2023/04/30 09:41:35;;;;;;;1.20;1.20;;;;;14.70;96234.00;;;;5094465;28;20221;-59
2023/04/30 09:44:02;;;;;;;1.20;1.20;;;;;14.80;96237.00;;;;5094343;28;20187;-60
2023/04/30 09:46:36;;;;;;;1.70;1.60;;;;;14.70;96233.00;;;;5094167;28;20259;-60
2023/04/30 09:49:04;;;;;;;1.00;1.00;;;;;14.50;96233.00;;;;5093543;28;20697;-61
2023/04/30 09:51:32;;;;;;;1.00;1.00;;;;;14.30;96233.00;;;;5094117;28;20194;-60
2023/04/30 09:54:02;;;;;;;1.30;1.20;;;;;14.50;96223.00;;;;5094268;28;20195;-60
2023/04/30 09:56:34;;;;;;;2.37;2.10;;;;;14.90;96235.00;;;;5092726;28;20191;-60
2023/04/30 09:59:04;;;;;;;1.20;1.20;;;;;14.70;96236.00;;;;5094153;28;20321;-60
2023/04/30 10:01:32;;;;;;;1.40;1.30;;;;;14.70;96231.00;;;;5093966;28;20191;-60
2023/04/30 10:04:00;;;;;;;3.00;1.30;;;;;14.70;96229.00;;;;5094035;28;20197;-63
2023/04/30 10:06:34;;;;;;;1.17;1.13;;;;;14.40;96220.00;;;;5094266;28;20195;-62
2023/04/30 10:09:06;;;;;;;1.00;1.00;;;;;14.60;96229.00;;;;5093846;28;20214;-62
2023/04/30 10:11:38;;;;;;;1.07;1.07;;;;;14.90;96218.00;;;;5094115;28;20267;-60
2023/04/30 10:14:11;;;;;;;1.07;1.00;;;;;14.70;96220.00;;;;5093733;28;20225;-59
2023/04/30 10:16:46;;;;;;;0.90;0.90;;;;;15.20;96219.00;;;;5092391;28;20194;-60
2023/04/30 10:19:18;;;;;;;1.20;1.10;;;;;15.50;96222.00;;;;5093585;28;20214;-60
2023/04/30 10:21:47;;;;;;;1.13;1.13;;;;;15.50;96221.00;;;;5093761;28;20183;-60
2023/04/30 10:24:17;;;;;;;1.70;1.60;;;;;15.70;96218.00;;;;5093850;28;20190;-60
2023/04/30 10:26:47;;;;;;;2.03;1.17;;;;;15.70;96208.00;;;;5093491;28;20190;-60
2023/04/30 10:29:15;;;;;;;1.13;1.10;;;;;15.90;96211.00;;;;5093418;28;20693;-60
2023/04/30 10:31:45;;;;;;;1.03;1.03;;;;;16.10;96211.00;;;;5093394;28;20209;-60
2023/04/30 10:34:19;;;;;;;1.00;1.00;;;;;16.50;96209.00;;;;5093399;28;20593;-60
2023/04/30 10:36:48;;;;;;;1.20;1.20;;;;;15.90;96200.00;;;;5093705;28;20178;-60
2023/04/30 10:39:18;;;;;;;1.03;1.03;;;;;16.00;96204.00;;;;5093173;28;20287;-60
2023/04/30 10:41:47;;;;;;;1.20;1.10;;;;;15.80;96201.00;;;;5093187;28;20221;-60
2023/04/30 10:44:21;;;;;;;0.80;0.80;;;;;16.10;96193.00;;;;5093799;28;20233;-60
2023/04/30 10:46:49;;;;;;;0.90;0.90;;;;;16.10;96194.00;;;;5093291;28;20183;-60
2023/04/30 10:49:25;;;;;;;1.03;1.03;;;;;16.60;96186.00;;;;5093010;28;20219;-60
2023/04/30 10:51:55;;;;;;;1.70;1.60;;;;;16.50;96194.00;;;;5093264;28;20182;-60
2023/04/30 10:54:26;;;;;;;1.87;1.67;;;;;16.60;96186.00;;;;5093220;28;20201;-60
2023/04/30 10:57:09;;;;;;;0.90;0.90;;;;;16.80;96180.00;;;;5093471;28;20194;-60
2023/04/30 10:59:37;;;;;;;1.70;0.90;;;;;17.20;96174.00;;;;5094167;28;20285;-61
2023/04/30 11:02:05;;;;;;;0.80;0.80;;;;;17.70;96179.00;;;;5097258;28;20763;-61
2023/04/30 11:04:32;;;;;;;1.17;1.17;;;;;17.60;96183.00;;;;5097220;28;20654;-60
2023/04/30 11:07:10;;;;;;;0.90;0.90;;;;;17.40;96188.00;;;;5097438;28;20201;-61
2023/04/30 11:09:41;;;;;;;0.83;0.83;;;;;16.70;96187.00;;;;5097362;28;20210;-61
2023/04/30 11:12:15;;;;;;;1.53;1.27;;;;;16.40;96189.00;;;;5097157;28;20175;-61
2023/04/30 11:14:44;;;;;;;0.77;0.77;;;;;16.70;96179.00;;;;5097358;28;20534;-61
2023/04/30 11:17:13;;;;;;;1.00;1.00;;;;;16.70;96176.00;;;;5097003;28;20624;-61
2023/04/30 11:19:48;;;;;;;0.80;0.80;;;;;16.50;96180.00;;;;5096945;28;20203;-61
2023/04/30 11:22:21;;;;;;;1.40;1.30;;;;;16.30;96189.00;;;;5096946;28;20206;-60
2023/04/30 11:24:54;;;;;;;0.70;0.70;;;;;16.60;96189.00;;;;5096967;28;20636;-61
2023/04/30 11:27:24;;;;;;;1.07;1.07;;;;;16.80;96174.00;;;;5097175;28;20202;-61
2023/04/30 11:29:52;;;;;;;0.80;0.80;;;;;16.70;96178.00;;;;5096731;28;20285;-61
2023/04/30 11:32:22;;;;;;;0.90;0.90;;;;;16.60;96177.00;;;;5097015;28;20293;-61
2023/04/30 11:34:50;;;;;;;0.70;0.70;;;;;16.10;96174.00;;;;5096747;28;20206;-61
2023/04/30 11:37:22;;;;;;;0.60;0.60;;;;;15.90;96176.00;;;;5096662;28;20194;-61
2023/04/30 11:39:51;;;;;;;0.70;0.70;;;;;15.90;96175.00;;;;5096399;28;20601;-61
2023/04/30 11:42:19;;;;;;;0.80;0.80;;;;;15.90;96178.00;;;;5096465;28;20212;-61
2023/04/30 11:44:48;;;;;;;1.40;1.13;;;;;16.20;96180.00;;;;5096482;28;20201;-61
2023/04/30 11:47:15;;;;;;;1.23;1.23;;;;;16.30;96172.00;;;;5096747;28;20591;-61
2023/04/30 11:49:43;;;;;;;1.13;0.97;;;;;16.50;96159.00;;;;5096626;28;20210;-59
2023/04/30 11:52:13;;;;;;;1.77;1.67;;;;;16.60;96166.00;;;;5096319;28;20187;-60
2023/04/30 11:54:40;;;;;;;1.17;1.07;;;;;16.60;96165.00;;;;5096555;28;20194;-60
2023/04/30 11:57:08;;;;;;;1.40;1.37;;;;;16.80;96170.00;;;;5096222;28;20188;-59
2023/04/30 11:59:42;;;;;;;1.13;1.13;;;;;16.80;96172.00;;;;5096046;28;20209;-59
2023/04/30 12:02:15;;;;;;;0.90;0.90;;;;;16.80;96165.00;;;;5096148;28;20240;-60
2023/04/30 12:04:44;;;;;;;0.90;0.90;;;;;17.00;96165.00;;;;5096121;28;20183;-60
2023/04/30 12:07:11;;;;;;;1.43;1.33;;;;;17.00;96167.00;;;;5094700;28;20607;-59
2023/04/30 12:09:53;;;;;;;0.93;0.93;;;;;17.10;96163.00;;;;5095846;28;20215;-59
2023/04/30 12:12:27;;;;;;;1.00;1.00;;;;;16.60;96168.00;;;;5095953;28;20202;-60
2023/04/30 12:14:55;;;;;;;1.73;1.30;;;;;16.10;96172.00;;;;5096145;28;20206;-60
2023/04/30 12:17:34;;;;;;;1.00;1.00;;;;;16.50;96168.00;;;;5095775;28;20665;-60
2023/04/30 12:20:01;;;;;;;0.83;0.83;;;;;16.80;96163.00;;;;5095645;28;20210;-60
2023/04/30 12:22:29;;;;;;;1.10;1.10;;;;;17.00;96165.00;;;;5095664;28;20194;-60
2023/04/30 12:24:59;;;;;;;0.93;0.93;;;;;17.30;96155.00;;;;5095990;28;20195;-62
2023/04/30 12:27:26;;;;;;;0.90;0.90;;;;;17.50;96153.00;;;;5095947;28;20245;-62